KADU

Details ICAO KADU
Name AUDUBON CO
Region United States
Timezone America/Chicago (UTC-5.0)
Plans Departing 0
Arriving 4
Stats Elevation 1,287 ft / 392 m (AMSL)
Location 41.701315° -94.920367°
Runways 1
Magnetic Variation 1.738° E
Sunrise 2018-05-25 10:53:03 UTC / 2018-05-25 05:53:03 Local
Sunset 2018-05-26 01:43:07 UTC / 2018-05-25 20:43:07 Local
Advertisement - Login to hide

Runways

ID Width Length Bearing (true) Bearing (mag) Surface Threshold Offset Overrun Length
14 60 ft / 18 m 3,534 ft / 1,077 m 148.01° 146.27° Concrete 130 ft / 40 m 0 ft / 0 m
32 60 ft / 18 m 3,534 ft / 1,077 m 328.01° 326.27° Concrete 0 ft / 0 m 0 ft / 0 m

Map

Weather


0- 5 10 15 20 25 30 35+ Temperature / ° C

Clouds and Precipitation
Forecast for 2018-05-25 12:00 UTC. Updated 4 hours ago

Ground ~20,000 ft ~40,000 ft Winds

METAR

KADU 251455Z AUTO 20008KT 10SM CLR 24/20 A2989 RMK AO2

TAF

Not found

Frequencies

Recorded 118.07 MHz AWOS 3
Unicom 122.80 MHz CTAF/UNICOM
Warning: Do not use this data for real-world aviation or navigation. No guarantee of current accuracy is given.